Time;durP1;ratioP1;P1;durP2;ratioP2;P2;SDS_P1;SDS_P2;PMS_P1;PMS_P2;Temp;Humidity;BMP_temperature;BMP_pressure;BME280_temperature;BME280_humidity;BME280_pressure;Samples;Min_cycle;Max_cycle;Signal;HPM_P1;HPM_P2
2022/08/09 00:01:16;;;;;;;3.13;1.77;;;;;;;;;;5009869;28;20053;-77
2022/08/09 00:03:41;;;;;;;7.65;1.92;;;;;;;;;;5009693;28;20034;-78
2022/08/09 00:06:07;;;;;;;3.65;1.90;;;;;;;;;;5009672;28;20061;-77
2022/08/09 00:08:32;;;;;;;3.10;2.00;;;;;;;;;;5009682;28;20548;-77
2022/08/09 00:10:59;;;;;;;2.55;1.80;;;;;;;;;;5009570;28;20105;-77
2022/08/09 00:13:24;;;;;;;2.58;1.70;;;;;;;;;;5009449;28;20148;-77
2022/08/09 00:15:51;;;;;;;4.10;1.75;;;;;;;;;;5009739;28;20120;-77
2022/08/09 00:18:16;;;;;;;3.95;1.63;;;;;;;;;;5009711;28;20032;-78
2022/08/09 00:20:42;;;;;;;2.97;1.58;;;;;;;;;;5009670;28;20104;-78
2022/08/09 00:23:07;;;;;;;8.57;1.58;;;;;;;;;;5009241;28;20029;-78
2022/08/09 00:25:33;;;;;;;5.47;1.70;;;;;;;;;;5009120;28;20048;-77
2022/08/09 00:27:58;;;;;;;3.03;1.40;;;;;;;;;;5009420;28;20037;-77
2022/08/09 00:30:24;;;;;;;4.43;1.48;;;;;;;;;;5009329;28;20026;-77
2022/08/09 00:32:49;;;;;;;2.65;1.60;;;;;;;;;;5009418;28;20030;-76
2022/08/09 00:35:14;;;;;;;3.03;1.50;;;;;;;;;;5009378;28;20033;-77
2022/08/09 00:37:40;;;;;;;2.60;1.60;;;;;;;;;;5009169;28;20117;-74
2022/08/09 00:40:06;;;;;;;4.70;1.55;;;;;;;;;;5009324;28;20030;-74
2022/08/09 00:42:31;;;;;;;3.17;1.60;;;;;;;;;;5009144;28;20041;-75
2022/08/09 00:44:57;;;;;;;3.88;1.60;;;;;;;;;;5008880;28;20036;-75
2022/08/09 00:47:22;;;;;;;3.33;1.50;;;;;;;;;;5008964;28;20052;-74
2022/08/09 00:49:48;;;;;;;3.05;1.50;;;;;;;;;;5009123;28;20550;-74
2022/08/09 00:52:14;;;;;;;6.28;1.63;;;;;;;;;;5009148;28;20075;-74
2022/08/09 00:54:40;;;;;;;3.13;1.48;;;;;;;;;;5008902;28;20022;-74
2022/08/09 00:57:05;;;;;;;3.90;1.60;;;;;;;;;;5009289;28;20402;-74
2022/08/09 00:59:31;;;;;;;5.63;1.60;;;;;;;;;;5009218;28;20084;-73
2022/08/09 01:02:00;;;;;;;3.50;1.48;;;;;;;;;;5008839;28;20626;-74
2022/08/09 01:04:31;;;;;;;2.65;1.40;;;;;;;;;;5007411;28;20497;-74
2022/08/09 01:07:09;;;;;;;2.70;1.60;;;;;;;;;;5008715;28;20038;-74
2022/08/09 01:09:42;;;;;;;4.00;1.50;;;;;;;;;;5008900;28;20045;-74
2022/08/09 01:12:08;;;;;;;3.53;1.58;;;;;;;;;;5008835;28;20075;-74
2022/08/09 01:14:54;;;;;;;5.15;1.65;;;;;;;;;;5007335;28;20025;-74
2022/08/09 01:17:26;;;;;;;2.22;1.48;;;;;;;;;;5008799;28;20057;-74
2022/08/09 01:19:59;;;;;;;3.13;1.55;;;;;;;;;;5008583;28;20030;-74
2022/08/09 01:22:30;;;;;;;4.03;1.67;;;;;;;;;;5008301;28;20038;-77
2022/08/09 01:25:10;;;;;;;3.88;1.77;;;;;;;;;;5008234;28;20034;-78
2022/08/09 01:27:38;;;;;;;7.28;2.17;;;;;;;;;;5008578;28;20511;-77
2022/08/09 01:30:07;;;;;;;13.70;7.28;;;;;;;;;;5007326;28;20022;-78
2022/08/09 01:32:37;;;;;;;18.20;9.15;;;;;;;;;;5008489;28;20485;-78
2022/08/09 01:35:08;;;;;;;21.80;11.48;;;;;;;;;;5008323;28;20032;-77
2022/08/09 01:37:35;;;;;;;29.08;14.88;;;;;;;;;;5008265;28;20026;-76
2022/08/09 01:40:03;;;;;;;34.85;18.13;;;;;;;;;;5008235;28;20056;-79
2022/08/09 01:42:31;;;;;;;37.90;19.88;;;;;;;;;;5008201;28;20075;-78
2022/08/09 01:44:58;;;;;;;33.50;19.40;;;;;;;;;;5008257;28;20022;-78
2022/08/09 01:47:25;;;;;;;38.58;18.73;;;;;;;;;;5008424;28;20043;-78
2022/08/09 01:49:52;;;;;;;26.45;15.77;;;;;;;;;;5007037;28;20026;-76
2022/08/09 01:52:19;;;;;;;22.45;12.93;;;;;;;;;;5008158;28;20030;-76
2022/08/09 01:54:48;;;;;;;20.58;10.57;;;;;;;;;;5007887;28;20038;-76
2022/08/09 01:57:36;;;;;;;16.80;8.27;;;;;;;;;;5007971;28;20485;-78
2022/08/09 02:00:05;;;;;;;13.57;6.50;;;;;;;;;;5007925;28;20077;-78
2022/08/09 02:02:33;;;;;;;10.93;4.57;;;;;;;;;;5008070;28;20058;-77
2022/08/09 02:05:02;;;;;;;7.75;3.42;;;;;;;;;;5007769;28;20034;-78
2022/08/09 02:07:28;;;;;;;5.90;3.30;;;;;;;;;;5007989;28;20263;-78
2022/08/09 02:10:01;;;;;;;5.85;2.67;;;;;;;;;;5007928;28;20030;-78
2022/08/09 02:12:29;;;;;;;4.13;2.20;;;;;;;;;;5007764;28;20029;-79
2022/08/09 02:14:57;;;;;;;6.45;2.15;;;;;;;;;;5006027;28;20040;-78
2022/08/09 02:17:26;;;;;;;5.82;2.35;;;;;;;;;;5007819;28;20030;-79
2022/08/09 02:19:52;;;;;;;7.82;1.85;;;;;;;;;;5007811;28;20520;-76
2022/08/09 02:22:44;;;;;;;5.18;1.95;;;;;;;;;;5007617;28;20034;-78
2022/08/09 02:25:14;;;;;;;6.68;2.00;;;;;;;;;;5007373;28;20037;-78
2022/08/09 02:27:44;;;;;;;5.40;1.88;;;;;;;;;;5007660;28;20022;-78
2022/08/09 02:30:10;;;;;;;3.85;1.83;;;;;;;;;;5007571;28;20033;-77
2022/08/09 02:32:42;;;;;;;4.47;1.88;;;;;;;;;;5007506;28;20029;-77
2022/08/09 02:35:22;;;;;;;4.60;2.00;;;;;;;;;;5007444;28;20034;-78
2022/08/09 02:37:51;;;;;;;6.47;1.83;;;;;;;;;;5007407;28;20037;-79
2022/08/09 02:40:21;;;;;;;4.20;1.90;;;;;;;;;;5007741;28;20037;-78
2022/08/09 02:42:49;;;;;;;4.35;1.80;;;;;;;;;;5007567;28;20284;-78
2022/08/09 02:45:30;;;;;;;4.15;1.73;;;;;;;;;;5007248;28;20026;-78
2022/08/09 02:48:01;;;;;;;4.35;1.73;;;;;;;;;;5005935;28;20030;-77
2022/08/09 02:50:35;;;;;;;4.03;1.85;;;;;;;;;;5007235;28;20398;-76
2022/08/09 02:53:03;;;;;;;6.82;1.83;;;;;;;;;;5007225;28;20498;-75
2022/08/09 02:55:30;;;;;;;3.70;1.70;;;;;;;;;;5007128;28;20454;-77
2022/08/09 02:57:59;;;;;;;4.07;1.80;;;;;;;;;;5007357;28;20038;-78
2022/08/09 03:00:26;;;;;;;4.75;1.90;;;;;;;;;;5007282;28;20023;-76
2022/08/09 03:02:54;;;;;;;4.18;1.83;;;;;;;;;;5007209;28;20040;-78
2022/08/09 03:05:20;;;;;;;5.50;1.83;;;;;;;;;;5006748;28;20046;-77
2022/08/09 03:07:47;;;;;;;5.20;1.90;;;;;;;;;;5006978;28;20087;-77
2022/08/09 03:10:13;;;;;;;3.05;1.63;;;;;;;;;;5005847;28;20112;-78
2022/08/09 03:12:40;;;;;;;2.88;1.60;;;;;;;;;;5005873;28;20113;-77
2022/08/09 03:15:08;;;;;;;5.95;1.67;;;;;;;;;;5007108;28;20030;-76
2022/08/09 03:17:35;;;;;;;5.55;1.88;;;;;;;;;;5007188;28;20026;-77
2022/08/09 03:20:01;;;;;;;4.90;1.98;;;;;;;;;;5007079;28;20057;-77
2022/08/09 03:22:29;;;;;;;3.70;1.70;;;;;;;;;;5006715;28;20048;-77
2022/08/09 03:24:54;;;;;;;4.03;1.60;;;;;;;;;;5006691;28;20083;-75
2022/08/09 03:27:21;;;;;;;3.95;1.80;;;;;;;;;;5007773;28;20033;-76
2022/08/09 03:29:47;;;;;;;4.63;1.75;;;;;;;;;;5009041;28;20400;-76
2022/08/09 03:32:14;;;;;;;3.35;1.70;;;;;;;;;;5010512;28;20082;-76
2022/08/09 03:34:40;;;;;;;3.35;1.85;;;;;;;;;;5010561;28;20049;-75
2022/08/09 03:37:05;;;;;;;3.60;1.77;;;;;;;;;;5009870;28;20044;-77
2022/08/09 03:39:31;;;;;;;4.22;1.80;;;;;;;;;;5010113;28;20022;-76
2022/08/09 03:41:56;;;;;;;6.38;1.80;;;;;;;;;;5010034;28;20066;-76
2022/08/09 03:44:24;;;;;;;6.00;1.75;;;;;;;;;;5010058;28;20056;-77
2022/08/09 03:46:50;;;;;;;2.88;1.58;;;;;;;;;;5010148;28;20030;-76
2022/08/09 03:49:17;;;;;;;2.67;1.60;;;;;;;;;;5010027;28;20025;-76
2022/08/09 03:51:45;;;;;;;4.95;1.75;;;;;;;;;;5009925;28;20102;-77
2022/08/09 03:54:12;;;;;;;2.78;1.80;;;;;;;;;;5010359;28;20029;-77
2022/08/09 03:56:39;;;;;;;4.75;1.80;;;;;;;;;;5009947;28;20026;-76
2022/08/09 03:59:05;;;;;;;4.88;2.05;;;;;;;;;;5009833;28;20481;-76
2022/08/09 04:01:31;;;;;;;2.58;1.58;;;;;;;;;;5009691;28;20033;-75
2022/08/09 04:03:59;;;;;;;5.68;2.03;;;;;;;;;;5009631;28;20072;-77
2022/08/09 04:06:25;;;;;;;3.88;1.90;;;;;;;;;;5009627;28;20038;-76
2022/08/09 04:08:50;;;;;;;4.18;1.98;;;;;;;;;;5009784;28;20030;-76
2022/08/09 04:11:16;;;;;;;4.35;1.85;;;;;;;;;;5009830;28;20028;-76
2022/08/09 04:13:42;;;;;;;3.88;2.00;;;;;;;;;;5009637;28;20050;-76
2022/08/09 04:16:07;;;;;;;4.35;1.60;;;;;;;;;;5009466;28;20037;-76
2022/08/09 04:18:32;;;;;;;4.03;1.70;;;;;;;;;;5008534;28;20026;-76
2022/08/09 04:20:58;;;;;;;6.85;1.80;;;;;;;;;;5009508;28;20021;-75
2022/08/09 04:23:23;;;;;;;5.72;2.03;;;;;;;;;;5009306;28;20079;-75
2022/08/09 04:25:48;;;;;;;4.75;1.90;;;;;;;;;;5009407;28;20037;-76
2022/08/09 04:28:14;;;;;;;6.75;1.80;;;;;;;;;;5009598;28;20139;-76
2022/08/09 04:30:39;;;;;;;2.92;1.80;;;;;;;;;;5009436;28;20030;-77
2022/08/09 04:33:05;;;;;;;3.70;1.83;;;;;;;;;;5009407;28;20029;-77
2022/08/09 04:35:30;;;;;;;3.80;1.83;;;;;;;;;;5009073;28;20079;-78
2022/08/09 04:37:56;;;;;;;6.93;2.00;;;;;;;;;;5009090;28;20032;-78
2022/08/09 04:40:21;;;;;;;4.38;1.95;;;;;;;;;;5009312;28;20496;-77
2022/08/09 04:42:47;;;;;;;5.07;1.75;;;;;;;;;;5009202;28;20109;-76
2022/08/09 04:45:12;;;;;;;5.60;1.90;;;;;;;;;;5009327;28;20109;-77
2022/08/09 04:47:38;;;;;;;5.40;2.00;;;;;;;;;;5008864;28;20025;-77
2022/08/09 04:50:03;;;;;;;5.03;1.90;;;;;;;;;;5009029;28;20028;-78
2022/08/09 04:52:29;;;;;;;5.20;1.98;;;;;;;;;;5008836;28;20032;-79
2022/08/09 04:54:56;;;;;;;3.38;1.80;;;;;;;;;;5009077;28;20030;-77
2022/08/09 04:57:21;;;;;;;4.40;1.98;;;;;;;;;;4991468;28;20030;-76
2022/08/09 04:59:47;;;;;;;8.90;2.20;;;;;;;;;;5009251;28;20033;-78
2022/08/09 05:02:13;;;;;;;4.68;2.17;;;;;;;;;;5007687;28;20033;-77
2022/08/09 05:04:38;;;;;;;4.80;2.10;;;;;;;;;;5008646;28;20082;-77
2022/08/09 05:07:04;;;;;;;5.30;2.10;;;;;;;;;;5008727;28;20118;-78
2022/08/09 05:09:30;;;;;;;3.22;2.00;;;;;;;;;;5007405;28;20038;-77
2022/08/09 05:11:57;;;;;;;4.25;2.20;;;;;;;;;;5008834;28;20036;-78
2022/08/09 05:14:22;;;;;;;4.43;1.85;;;;;;;;;;5008763;28;20567;-78
2022/08/09 05:16:48;;;;;;;4.57;2.20;;;;;;;;;;5008709;28;20113;-77
2022/08/09 05:19:16;;;;;;;4.88;2.20;;;;;;;;;;5008612;28;20022;-77
2022/08/09 05:21:42;;;;;;;3.60;2.10;;;;;;;;;;5008678;28;20481;-78
2022/08/09 05:24:08;;;;;;;5.28;2.15;;;;;;;;;;5008542;28;20026;-79
2022/08/09 05:26:34;;;;;;;3.85;2.00;;;;;;;;;;5008211;28;20088;-79
2022/08/09 05:29:00;;;;;;;7.10;2.20;;;;;;;;;;5007248;28;20401;-78
2022/08/09 05:31:25;;;;;;;4.70;2.30;;;;;;;;;;5008582;28;20033;-78
2022/08/09 05:33:51;;;;;;;5.07;2.20;;;;;;;;;;5007162;28;20036;-79
2022/08/09 05:36:16;;;;;;;4.28;2.10;;;;;;;;;;5008288;28;20033;-78
2022/08/09 05:38:41;;;;;;;5.57;2.08;;;;;;;;;;5008372;28;20025;-79
2022/08/09 05:41:07;;;;;;;6.28;2.17;;;;;;;;;;5008459;28;20610;-78
2022/08/09 05:43:34;;;;;;;4.65;2.20;;;;;;;;;;5008162;28;20037;-79
2022/08/09 05:46:01;;;;;;;4.88;2.10;;;;;;;;;;5008164;28;20036;-76
2022/08/09 05:48:26;;;;;;;5.75;2.30;;;;;;;;;;5008173;28;20054;-76
2022/08/09 05:50:52;;;;;;;6.40;2.30;;;;;;;;;;5007878;28;20068;-74
2022/08/09 05:53:17;;;;;;;4.55;2.30;;;;;;;;;;5008152;28;20026;-74
2022/08/09 05:55:42;;;;;;;6.20;2.30;;;;;;;;;;5008107;28;20030;-75
2022/08/09 05:58:08;;;;;;;5.10;2.45;;;;;;;;;;5007949;28;20029;-74
2022/08/09 06:00:33;;;;;;;7.25;2.50;;;;;;;;;;5007912;28;20500;-77
2022/08/09 06:03:01;;;;;;;6.55;2.40;;;;;;;;;;5007740;28;20080;-76
2022/08/09 06:05:32;;;;;;;8.38;2.40;;;;;;;;;;5007855;28;20046;-78
2022/08/09 06:07:57;;;;;;;7.55;2.40;;;;;;;;;;5007649;28;20030;-78
2022/08/09 06:10:36;;;;;;;9.00;2.63;;;;;;;;;;5007988;28;20397;-78
2022/08/09 06:13:06;;;;;;;8.82;2.72;;;;;;;;;;5007834;28;20068;-78
2022/08/09 06:15:32;;;;;;;6.88;2.60;;;;;;;;;;5007722;28;20049;-78
2022/08/09 06:17:57;;;;;;;9.57;2.70;;;;;;;;;;5007539;28;20065;-77
2022/08/09 06:20:23;;;;;;;7.90;2.50;;;;;;;;;;5007636;28;20060;-79
2022/08/09 06:22:48;;;;;;;9.18;2.58;;;;;;;;;;5006184;28;20394;-78
2022/08/09 06:25:14;;;;;;;8.13;2.50;;;;;;;;;;5007728;28;20440;-78
2022/08/09 06:27:40;;;;;;;11.02;2.85;;;;;;;;;;5007443;28;20022;-77
2022/08/09 06:30:06;;;;;;;10.02;2.67;;;;;;;;;;5007730;28;20029;-78
2022/08/09 06:32:32;;;;;;;9.07;2.53;;;;;;;;;;5007695;28;20106;-76
2022/08/09 06:34:57;;;;;;;7.65;2.67;;;;;;;;;;5007513;28;20112;-76
2022/08/09 06:37:23;;;;;;;8.00;2.60;;;;;;;;;;5007025;28;20131;-77
2022/08/09 06:39:49;;;;;;;7.25;2.60;;;;;;;;;;5007407;28;20413;-75
2022/08/09 06:42:16;;;;;;;10.30;2.30;;;;;;;;;;5007492;28;20033;-77
2022/08/09 06:44:42;;;;;;;7.50;2.15;;;;;;;;;;5007394;28;20471;-76
2022/08/09 06:47:07;;;;;;;8.10;2.30;;;;;;;;;;5007421;28;20061;-76
2022/08/09 06:49:33;;;;;;;7.07;2.40;;;;;;;;;;5007397;28;20043;-76
2022/08/09 06:51:58;;;;;;;6.93;2.22;;;;;;;;;;5007039;28;20082;-77
2022/08/09 06:54:23;;;;;;;8.63;2.22;;;;;;;;;;5007111;28;20029;-78
2022/08/09 06:56:49;;;;;;;8.00;2.20;;;;;;;;;;5005715;28;20042;-78
2022/08/09 06:59:14;;;;;;;5.53;2.55;;;;;;;;;;5007247;28;20038;-78
2022/08/09 07:01:40;;;;;;;6.90;2.17;;;;;;;;;;5007346;28;20117;-78
2022/08/09 07:04:05;;;;;;;6.15;2.17;;;;;;;;;;5010686;28;20046;-75
2022/08/09 07:06:31;;;;;;;4.95;2.13;;;;;;;;;;5010462;28;20033;-76
2022/08/09 07:08:56;;;;;;;10.23;2.20;;;;;;;;;;5010677;28;20113;-77
2022/08/09 07:11:21;;;;;;;6.65;2.22;;;;;;;;;;5010568;28;20018;-77
2022/08/09 07:13:47;;;;;;;4.72;2.10;;;;;;;;;;5010355;28;20022;-78
2022/08/09 07:16:12;;;;;;;8.32;2.35;;;;;;;;;;5010570;28;20057;-77
2022/08/09 07:18:38;;;;;;;5.75;2.10;;;;;;;;;;5010527;28;20396;-77
2022/08/09 07:21:03;;;;;;;6.60;2.10;;;;;;;;;;5010621;28;20022;-77
2022/08/09 07:23:28;;;;;;;4.35;2.20;;;;;;;;;;5010349;28;20030;-76
2022/08/09 07:25:54;;;;;;;5.75;2.30;;;;;;;;;;5010325;28;20038;-75
2022/08/09 07:28:19;;;;;;;8.23;2.38;;;;;;;;;;5010041;28;20036;-77
2022/08/09 07:30:45;;;;;;;6.60;2.20;;;;;;;;;;5010180;28;20040;-77
2022/08/09 07:33:10;;;;;;;7.97;2.38;;;;;;;;;;5010369;28;20470;-77
2022/08/09 07:35:36;;;;;;;5.68;2.25;;;;;;;;;;5010383;28;20478;-75
2022/08/09 07:38:01;;;;;;;8.18;2.08;;;;;;;;;;5010096;28;20033;-75
2022/08/09 07:40:27;;;;;;;3.63;2.13;;;;;;;;;;5010395;28;20591;-76
2022/08/09 07:42:57;;;;;;;4.18;2.10;;;;;;;;;;5010057;28;20026;-77
2022/08/09 07:45:24;;;;;;;7.13;2.10;;;;;;;;;;5010044;28;20026;-77
2022/08/09 07:47:51;;;;;;;10.02;2.00;;;;;;;;;;5009768;28;20158;-78
2022/08/09 07:50:21;;;;;;;6.18;2.40;;;;;;;;;;5009898;28;20064;-77
2022/08/09 07:52:47;;;;;;;8.50;2.40;;;;;;;;;;5010035;28;20034;-78
2022/08/09 07:55:13;;;;;;;4.78;2.03;;;;;;;;;;5010113;28;20030;-77
2022/08/09 07:57:38;;;;;;;6.50;2.33;;;;;;;;;;5009768;28;20036;-78
2022/08/09 08:00:05;;;;;;;10.55;2.40;;;;;;;;;;5009922;28;20026;-78
2022/08/09 08:02:30;;;;;;;5.40;2.10;;;;;;;;;;5009698;28;20498;-77
2022/08/09 08:04:56;;;;;;;4.80;2.05;;;;;;;;;;5009557;28;20054;-76
2022/08/09 08:07:21;;;;;;;6.00;2.30;;;;;;;;;;5009491;28;20029;-74
2022/08/09 08:09:46;;;;;;;7.72;2.30;;;;;;;;;;5009657;28;20041;-75
2022/08/09 08:12:12;;;;;;;6.03;2.25;;;;;;;;;;5009814;28;20041;-75
2022/08/09 08:14:37;;;;;;;8.02;2.20;;;;;;;;;;5009470;28;20030;-75
2022/08/09 08:17:03;;;;;;;7.07;2.17;;;;;;;;;;5009406;28;20064;-75
2022/08/09 08:19:28;;;;;;;7.03;2.30;;;;;;;;;;5009638;28;20029;-74
2022/08/09 08:21:54;;;;;;;9.32;2.20;;;;;;;;;;5009325;28;20026;-75
2022/08/09 08:24:19;;;;;;;7.65;2.42;;;;;;;;;;5009439;28;20106;-74
2022/08/09 08:26:44;;;;;;;7.00;2.47;;;;;;;;;;5009137;28;20026;-75
2022/08/09 08:29:10;;;;;;;5.65;2.25;;;;;;;;;;5009476;28;20382;-76
2022/08/09 08:31:35;;;;;;;7.22;2.33;;;;;;;;;;5009439;28;20125;-76
2022/08/09 08:34:01;;;;;;;5.38;2.40;;;;;;;;;;5009370;28;20448;-76
2022/08/09 08:36:26;;;;;;;6.47;2.30;;;;;;;;;;5009299;28;20026;-76
2022/08/09 08:38:52;;;;;;;6.70;2.35;;;;;;;;;;5009052;28;20026;-75
2022/08/09 08:41:18;;;;;;;6.03;2.42;;;;;;;;;;5009165;28;20037;-76
2022/08/09 08:43:44;;;;;;;5.13;2.15;;;;;;;;;;5009285;28;20036;-75
2022/08/09 08:46:13;;;;;;;6.78;2.40;;;;;;;;;;5007981;28;20116;-75
2022/08/09 08:48:41;;;;;;;11.55;2.20;;;;;;;;;;5009286;28;20386;-76
2022/08/09 08:51:07;;;;;;;5.78;2.10;;;;;;;;;;5009185;28;20576;-74
2022/08/09 08:53:33;;;;;;;8.00;2.20;;;;;;;;;;5009078;28;20103;-74
2022/08/09 08:56:00;;;;;;;4.57;2.28;;;;;;;;;;5009528;28;20036;-74
2022/08/09 08:58:28;;;;;;;4.85;2.13;;;;;;;;;;5008872;28;20094;-75
2022/08/09 09:00:56;;;;;;;7.90;2.20;;;;;;;;;;5008979;28;20024;-74
2022/08/09 09:03:22;;;;;;;5.95;2.20;;;;;;;;;;5008780;28;20412;-74
2022/08/09 09:05:48;;;;;;;6.57;2.13;;;;;;;;;;5008582;28;20149;-74
2022/08/09 09:08:18;;;;;;;4.38;2.42;;;;;;;;;;5008823;28;20037;-74
2022/08/09 09:10:43;;;;;;;6.07;2.17;;;;;;;;;;5008993;28;20034;-74
2022/08/09 09:13:09;;;;;;;3.92;2.05;;;;;;;;;;5008786;28;20598;-75
2022/08/09 09:15:37;;;;;;;4.88;2.30;;;;;;;;;;5008718;28;20507;-76
2022/08/09 09:18:02;;;;;;;6.82;2.50;;;;;;;;;;5008569;28;20025;-76
2022/08/09 09:20:34;;;;;;;4.65;2.10;;;;;;;;;;5008740;28;20022;-77
2022/08/09 09:22:59;;;;;;;7.65;2.25;;;;;;;;;;5008463;28;20033;-76
2022/08/09 09:25:33;;;;;;;6.93;2.35;;;;;;;;;;5007695;28;20030;-77
2022/08/09 09:28:00;;;;;;;6.40;2.13;;;;;;;;;;5008493;28;20104;-76
2022/08/09 09:30:25;;;;;;;2.95;1.92;;;;;;;;;;5007039;28;20390;-76
2022/08/09 09:33:08;;;;;;;4.88;2.35;;;;;;;;;;5008655;28;20466;-77
2022/08/09 09:35:50;;;;;;;5.45;2.17;;;;;;;;;;5008402;28;20078;-75
2022/08/09 09:38:16;;;;;;;6.88;2.40;;;;;;;;;;5008221;28;20030;-76
2022/08/09 09:40:43;;;;;;;3.80;2.00;;;;;;;;;;5007258;28;20034;-77
2022/08/09 09:43:15;;;;;;;3.28;2.17;;;;;;;;;;5008417;28;20033;-75
2022/08/09 09:45:52;;;;;;;7.22;2.08;;;;;;;;;;5006892;28;20030;-76
2022/08/09 09:48:19;;;;;;;10.07;2.28;;;;;;;;;;5008097;28;20026;-77
2022/08/09 09:50:47;;;;;;;5.82;2.25;;;;;;;;;;5007978;28;20650;-77
2022/08/09 09:53:15;;;;;;;4.78;2.10;;;;;;;;;;5008045;28;20064;-77
2022/08/09 09:55:59;;;;;;;6.15;2.10;;;;;;;;;;5008099;28;20025;-76
2022/08/09 09:58:42;;;;;;;5.90;2.20;;;;;;;;;;5008024;28;20026;-76
2022/08/09 10:01:20;;;;;;;7.82;1.98;;;;;;;;;;5008089;28;20037;-77
2022/08/09 10:03:50;;;;;;;5.18;2.10;;;;;;;;;;5007670;28;20030;-77
2022/08/09 10:06:17;;;;;;;4.07;2.10;;;;;;;;;;5007739;28;20059;-76
2022/08/09 10:08:44;;;;;;;6.07;2.17;;;;;;;;;;5007641;28;20432;-77
2022/08/09 10:11:29;;;;;;;4.55;1.92;;;;;;;;;;5007953;28;20616;-76
2022/08/09 10:13:54;;;;;;;7.18;2.20;;;;;;;;;;5007909;28;20030;-76
2022/08/09 10:16:32;;;;;;;7.05;2.40;;;;;;;;;;5007994;28;20037;-76
2022/08/09 10:18:59;;;;;;;6.72;2.33;;;;;;;;;;5006289;28;20094;-76
2022/08/09 10:21:25;;;;;;;8.80;2.28;;;;;;;;;;5007447;28;20386;-76
2022/08/09 10:23:52;;;;;;;5.72;2.28;;;;;;;;;;5007583;28;20070;-75
2022/08/09 10:26:20;;;;;;;5.70;2.30;;;;;;;;;;5007532;28;20022;-75
2022/08/09 10:28:46;;;;;;;6.00;2.25;;;;;;;;;;5007376;28;20211;-76
2022/08/09 10:31:12;;;;;;;4.38;2.10;;;;;;;;;;5007820;28;20121;-76
2022/08/09 10:33:39;;;;;;;5.82;2.30;;;;;;;;;;5007425;28;20537;-77
2022/08/09 10:36:06;;;;;;;5.50;2.30;;;;;;;;;;5007301;28;20428;-77
2022/08/09 10:38:32;;;;;;;4.47;2.30;;;;;;;;;;5007222;28;20026;-77
2022/08/09 10:40:57;;;;;;;6.20;2.30;;;;;;;;;;5007310;28;20113;-78
2022/08/09 10:43:23;;;;;;;5.30;2.10;;;;;;;;;;5007473;28;20037;-78
2022/08/09 10:45:49;;;;;;;9.27;2.30;;;;;;;;;;5007312;28;20026;-77
2022/08/09 10:48:20;;;;;;;5.03;2.05;;;;;;;;;;5007066;28;20036;-77
2022/08/09 10:53:57;;;;;;;5.07;2.15;;;;;;;;;;5007098;28;20409;-77
2022/08/09 10:56:24;;;;;;;4.50;2.08;;;;;;;;;;5005930;28;20038;-79
2022/08/09 10:58:55;;;;;;;5.32;2.35;;;;;;;;;;5006848;28;20065;-80
2022/08/09 11:01:30;;;;;;;4.07;2.17;;;;;;;;;;5007029;28;20026;-76
2022/08/09 11:04:07;;;;;;;5.82;2.15;;;;;;;;;;5007068;28;20030;-79
2022/08/09 11:06:36;;;;;;;4.43;2.10;;;;;;;;;;5007181;28;20030;-79
2022/08/09 11:09:02;;;;;;;5.38;2.15;;;;;;;;;;5006984;28;20504;-79
2022/08/09 11:11:54;;;;;;;5.07;2.20;;;;;;;;;;5007080;28;20019;-79
2022/08/09 11:14:47;;;;;;;5.30;2.20;;;;;;;;;;5006856;28;20026;-78
2022/08/09 11:17:13;;;;;;;5.63;2.30;;;;;;;;;;5007004;28;20030;-78
2022/08/09 11:20:06;;;;;;;3.60;2.17;;;;;;;;;;5005359;28;20026;-78
2022/08/09 11:22:43;;;;;;;8.68;2.13;;;;;;;;;;5006892;28;20069;-78
2022/08/09 11:25:13;;;;;;;6.68;2.10;;;;;;;;;;5007037;28;20590;-77
2022/08/09 11:27:48;;;;;;;3.97;2.00;;;;;;;;;;5006978;28;20497;-77
2022/08/09 11:30:19;;;;;;;11.65;2.20;;;;;;;;;;5006928;28;20261;-78
2022/08/09 11:32:49;;;;;;;7.13;1.90;;;;;;;;;;5006667;28;20113;-78
2022/08/09 11:35:26;;;;;;;7.95;2.10;;;;;;;;;;5006774;28;20105;-78
2022/08/09 11:37:55;;;;;;;8.18;2.35;;;;;;;;;;5006455;28;20497;-79
2022/08/09 11:40:23;;;;;;;5.03;2.03;;;;;;;;;;5006760;28;20018;-79
2022/08/09 11:42:51;;;;;;;3.42;2.08;;;;;;;;;;5006743;28;20029;-79
2022/08/09 11:45:37;;;;;;;5.20;2.00;;;;;;;;;;5005637;28;20118;-77
2022/08/09 11:48:28;;;;;;;2.88;1.75;;;;;;;;;;5007126;28;20606;-77
2022/08/09 11:50:56;;;;;;;5.13;1.90;;;;;;;;;;5009686;28;20068;-78
2022/08/09 11:53:27;;;;;;;8.43;1.90;;;;;;;;;;5009760;28;20431;-77
2022/08/09 11:55:54;;;;;;;7.53;1.70;;;;;;;;;;5008635;28;20053;-78
2022/08/09 11:58:22;;;;;;;5.78;1.70;;;;;;;;;;5009757;28;20066;-77
2022/08/09 12:00:58;;;;;;;2.60;1.50;;;;;;;;;;5008600;28;20026;-77
2022/08/09 12:03:25;;;;;;;1.70;1.50;;;;;;;;;;5009770;28;20041;-76
2022/08/09 12:05:53;;;;;;;4.40;1.55;;;;;;;;;;5009694;28;20073;-78
2022/08/09 12:08:20;;;;;;;2.97;1.70;;;;;;;;;;5009484;28;20431;-76
2022/08/09 12:10:49;;;;;;;3.05;1.70;;;;;;;;;;5009657;28;20030;-78
2022/08/09 12:13:32;;;;;;;4.32;1.80;;;;;;;;;;5009769;28;20041;-77
2022/08/09 12:16:02;;;;;;;4.35;1.88;;;;;;;;;;5010160;28;20022;-77
2022/08/09 12:18:28;;;;;;;7.30;1.92;;;;;;;;;;5009524;28;20143;-76
2022/08/09 12:20:53;;;;;;;3.67;1.73;;;;;;;;;;5010047;28;20109;-77
2022/08/09 12:23:19;;;;;;;3.33;1.88;;;;;;;;;;5009581;28;20496;-78
2022/08/09 12:25:50;;;;;;;3.10;1.80;;;;;;;;;;5009448;28;20498;-77
2022/08/09 12:28:20;;;;;;;4.03;1.70;;;;;;;;;;5009032;28;20033;-77
2022/08/09 12:30:45;;;;;;;3.60;1.80;;;;;;;;;;5009310;28;20405;-77
2022/08/09 12:33:11;;;;;;;2.45;1.60;;;;;;;;;;5009446;28;20526;-76
2022/08/09 12:35:38;;;;;;;2.53;1.77;;;;;;;;;;5009527;28;20029;-78
2022/08/09 12:38:29;;;;;;;5.75;1.67;;;;;;;;;;5009343;28;20034;-76
2022/08/09 12:40:57;;;;;;;5.68;1.65;;;;;;;;;;5009176;28;20029;-77
2022/08/09 12:43:27;;;;;;;4.13;1.60;;;;;;;;;;5009154;28;20033;-77
2022/08/09 12:45:55;;;;;;;3.35;1.80;;;;;;;;;;5009222;28;20074;-77
2022/08/09 12:48:20;;;;;;;7.70;1.77;;;;;;;;;;5009093;28;20109;-77
2022/08/09 12:50:47;;;;;;;3.60;1.70;;;;;;;;;;5007864;28;20113;-77
2022/08/09 12:53:39;;;;;;;2.45;1.50;;;;;;;;;;5009050;28;20030;-76
2022/08/09 12:56:18;;;;;;;3.15;1.60;;;;;;;;;;5009228;28;20507;-76
2022/08/09 12:59:10;;;;;;;4.53;1.80;;;;;;;;;;5008787;28;20034;-77
2022/08/09 13:01:38;;;;;;;6.43;1.70;;;;;;;;;;5008110;28;20034;-76
2022/08/09 13:04:09;;;;;;;5.65;1.73;;;;;;;;;;5008675;28;20033;-76
2022/08/09 13:06:37;;;;;;;3.97;1.77;;;;;;;;;;5008784;28;20500;-76
2022/08/09 13:09:16;;;;;;;2.47;1.58;;;;;;;;;;5008929;28;20025;-77
2022/08/09 13:11:45;;;;;;;3.70;1.60;;;;;;;;;;5008978;28;20101;-77
2022/08/09 13:14:33;;;;;;;4.78;1.50;;;;;;;;;;5008686;28;20022;-77
2022/08/09 13:17:04;;;;;;;2.13;1.30;;;;;;;;;;5008272;28;20160;-77
2022/08/09 13:19:39;;;;;;;4.68;1.80;;;;;;;;;;5008635;28;20029;-75
2022/08/09 13:22:12;;;;;;;6.22;1.60;;;;;;;;;;5008390;28;20087;-76
2022/08/09 13:24:40;;;;;;;4.55;1.70;;;;;;;;;;5008572;28;20025;-76
2022/08/09 13:27:42;;;;;;;2.88;1.50;;;;;;;;;;5008762;28;20109;-76
2022/08/09 13:30:15;;;;;;;6.13;1.75;;;;;;;;;;5008575;28;20042;-77
2022/08/09 13:32:48;;;;;;;3.67;1.70;;;;;;;;;;5008520;28;20030;-76
2022/08/09 13:35:17;;;;;;;3.97;1.60;;;;;;;;;;5008425;28;20076;-75
2022/08/09 13:37:43;;;;;;;2.20;1.67;;;;;;;;;;5008112;28;20030;-75
2022/08/09 13:40:11;;;;;;;4.72;1.75;;;;;;;;;;5008215;28;20025;-76
2022/08/09 13:42:37;;;;;;;8.10;1.70;;;;;;;;;;5008212;28;20045;-75
2022/08/09 13:45:07;;;;;;;5.90;1.50;;;;;;;;;;5008402;28;20682;-76
2022/08/09 13:47:32;;;;;;;3.90;1.65;;;;;;;;;;5008332;28;20026;-76
2022/08/09 13:50:05;;;;;;;1.88;1.40;;;;;;;;;;5008068;28;20453;-76
2022/08/09 13:52:32;;;;;;;3.88;1.70;;;;;;;;;;5008105;28;20595;-76
2022/08/09 13:54:58;;;;;;;5.30;1.70;;;;;;;;;;5008225;28;20030;-77
2022/08/09 13:57:23;;;;;;;5.53;1.60;;;;;;;;;;5008418;28;20034;-77
2022/08/09 13:59:49;;;;;;;4.93;1.80;;;;;;;;;;5007799;28;20018;-75
2022/08/09 14:02:15;;;;;;;4.40;1.50;;;;;;;;;;5008169;28;20507;-76
2022/08/09 14:04:40;;;;;;;2.15;1.60;;;;;;;;;;5007879;28;20046;-77
2022/08/09 14:07:06;;;;;;;4.68;1.50;;;;;;;;;;5007985;28;20030;-75
2022/08/09 14:09:31;;;;;;;3.65;1.50;;;;;;;;;;5007847;28;20033;-76
2022/08/09 14:11:59;;;;;;;6.10;1.50;;;;;;;;;;5007329;28;20029;-76
2022/08/09 14:14:25;;;;;;;2.92;1.50;;;;;;;;;;5007785;28;20025;-75
2022/08/09 14:16:52;;;;;;;2.80;1.40;;;;;;;;;;5007753;28;20030;-76
2022/08/09 14:19:17;;;;;;;6.47;1.60;;;;;;;;;;5007840;28;20061;-76
2022/08/09 14:21:43;;;;;;;3.40;1.60;;;;;;;;;;5007790;28;20486;-76
2022/08/09 14:24:14;;;;;;;4.68;1.60;;;;;;;;;;5007880;28;20098;-76
2022/08/09 14:26:41;;;;;;;4.65;1.50;;;;;;;;;;5007663;28;20074;-76
2022/08/09 14:29:10;;;;;;;2.60;1.38;;;;;;;;;;5007264;28;20022;-75
2022/08/09 14:31:35;;;;;;;3.65;1.60;;;;;;;;;;5007566;28;20460;-77
2022/08/09 14:34:01;;;;;;;5.05;1.45;;;;;;;;;;5007635;28;20108;-77
2022/08/09 14:36:27;;;;;;;2.17;1.30;;;;;;;;;;5007613;28;20029;-75
2022/08/09 14:38:52;;;;;;;2.45;1.27;;;;;;;;;;5007523;28;20394;-77
2022/08/09 14:41:18;;;;;;;3.08;1.40;;;;;;;;;;5007563;28;20041;-76
2022/08/09 14:43:44;;;;;;;3.58;1.33;;;;;;;;;;5007406;28;20117;-77
2022/08/09 14:46:09;;;;;;;1.95;1.40;;;;;;;;;;5007397;28;20542;-77
2022/08/09 14:48:34;;;;;;;3.10;1.40;;;;;;;;;;5007122;28;20026;-76
2022/08/09 14:51:00;;;;;;;3.38;1.40;;;;;;;;;;5007008;28;20055;-76